sensor_id;sensor_type;location;lat;lon;timestamp;pressure;altitude;pressure_sealevel;temperature;humidity
28354;BME280;15603;50.878;8.036;2022-10-04T00:01:59;145099.47;;;7.77;100.00
28354;BME280;15603;50.878;8.036;2022-10-04T00:04:44;145037.63;;;7.51;100.00
28354;BME280;15603;50.878;8.036;2022-10-04T00:07:37;145078.88;;;7.68;100.00
28354;BME280;15603;50.878;8.036;2022-10-04T00:10:20;144944.22;;;7.11;100.00
28354;BME280;15603;50.878;8.036;2022-10-04T00:12:57;144985.47;;;7.28;100.00
28354;BME280;15603;50.878;8.036;2022-10-04T00:15:28;145000.00;;;7.35;100.00
28354;BME280;15603;50.878;8.036;2022-10-04T00:18:21;145008.50;;;7.38;100.00
28354;BME280;15603;50.878;8.036;2022-10-04T00:26:10;145017.00;;;7.42;100.00
28354;BME280;15603;50.878;8.036;2022-10-04T00:31:25;145035.19;;;7.50;100.00
28354;BME280;15603;50.878;8.036;2022-10-04T00:36:35;145009.69;;;7.39;100.00
28354;BME280;15603;50.878;8.036;2022-10-04T00:41:55;145007.28;;;7.38;100.00
28354;BME280;15603;50.878;8.036;2022-10-04T00:44:36;145014.53;;;7.41;100.00
28354;BME280;15603;50.878;8.036;2022-10-04T00:47:20;144958.78;;;7.17;100.00
28354;BME280;15603;50.878;8.036;2022-10-04T00:49:53;144978.16;;;7.25;100.00
28354;BME280;15603;50.878;8.036;2022-10-04T00:52:25;145021.84;;;7.44;100.00
28354;BME280;15603;50.878;8.036;2022-10-04T00:54:55;145020.63;;;7.43;100.00
28354;BME280;15603;50.878;8.036;2022-10-04T00:57:44;145019.44;;;7.43;100.00
28354;BME280;15603;50.878;8.036;2022-10-04T01:00:17;145023.03;;;7.44;100.00
28354;BME280;15603;50.878;8.036;2022-10-04T01:02:51;145002.44;;;7.36;100.00
28354;BME280;15603;50.878;8.036;2022-10-04T01:05:30;144973.31;;;7.23;100.00
28354;BME280;15603;50.878;8.036;2022-10-04T01:10:44;144987.91;;;7.30;100.00
28354;BME280;15603;50.878;8.036;2022-10-04T01:15:56;144970.91;;;7.22;100.00
28354;BME280;15603;50.878;8.036;2022-10-04T01:23:50;144935.75;;;7.07;100.00
28354;BME280;15603;50.878;8.036;2022-10-04T01:28:50;144878.78;;;6.83;100.00
28354;BME280;15603;50.878;8.036;2022-10-04T01:31:18;144890.88;;;6.88;100.00
28354;BME280;15603;50.878;8.036;2022-10-04T01:33:45;144907.88;;;6.96;100.00
28354;BME280;15603;50.878;8.036;2022-10-04T01:36:12;144927.25;;;7.04;100.00
28354;BME280;15603;50.878;8.036;2022-10-04T01:38:39;144927.25;;;7.04;100.00
28354;BME280;15603;50.878;8.036;2022-10-04T01:41:07;144940.59;;;7.10;100.00
28354;BME280;15603;50.878;8.036;2022-10-04T01:43:37;144936.94;;;7.08;100.00
28354;BME280;15603;50.878;8.036;2022-10-04T01:46:12;144878.78;;;6.83;100.00
28354;BME280;15603;50.878;8.036;2022-10-04T01:48:43;144927.25;;;7.04;100.00
28354;BME280;15603;50.878;8.036;2022-10-04T01:51:27;144926.03;;;7.03;100.00
28354;BME280;15603;50.878;8.036;2022-10-04T01:54:11;144950.28;;;7.14;100.00
28354;BME280;15603;50.878;8.036;2022-10-04T01:56:44;144936.94;;;7.08;100.00
28354;BME280;15603;50.878;8.036;2022-10-04T01:59:16;144929.69;;;7.05;100.00
28354;BME280;15603;50.878;8.036;2022-10-04T02:04:27;144909.06;;;6.96;100.00
28354;BME280;15603;50.878;8.036;2022-10-04T02:06:56;144906.66;;;6.95;100.00
28354;BME280;15603;50.878;8.036;2022-10-04T02:09:30;144839.97;;;6.67;100.00
28354;BME280;15603;50.878;8.036;2022-10-04T02:12:00;144892.13;;;6.89;100.00
28354;BME280;15603;50.878;8.036;2022-10-04T02:14:31;144888.47;;;6.87;100.00
28354;BME280;15603;50.878;8.036;2022-10-04T02:17:04;144905.41;;;6.95;100.00
28354;BME280;15603;50.878;8.036;2022-10-04T02:19:35;144827.84;;;6.62;100.00
28354;BME280;15603;50.878;8.036;2022-10-04T02:22:04;144921.19;;;7.01;100.00
28354;BME280;15603;50.878;8.036;2022-10-04T02:24:35;144911.50;;;6.97;100.00
28354;BME280;15603;50.878;8.036;2022-10-04T02:27:03;144883.63;;;6.85;100.00
28354;BME280;15603;50.878;8.036;2022-10-04T02:29:32;144899.38;;;6.92;100.00
28354;BME280;15603;50.878;8.036;2022-10-04T02:31:59;144907.88;;;6.96;100.00
28354;BME280;15603;50.878;8.036;2022-10-04T02:34:46;144890.88;;;6.88;100.00
28354;BME280;15603;50.878;8.036;2022-10-04T02:37:13;144850.88;;;6.72;100.00
28354;BME280;15603;50.878;8.036;2022-10-04T02:39:55;144841.19;;;6.67;100.00
28354;BME280;15603;50.878;8.036;2022-10-04T02:42:37;144890.88;;;6.88;100.00
28354;BME280;15603;50.878;8.036;2022-10-04T02:45:40;144855.75;;;6.74;100.00
28354;BME280;15603;50.878;8.036;2022-10-04T02:48:09;144826.66;;;6.61;100.00
28354;BME280;15603;50.878;8.036;2022-10-04T02:50:49;144900.56;;;6.93;100.00
28354;BME280;15603;50.878;8.036;2022-10-04T02:53:33;144844.81;;;6.69;100.00
28354;BME280;15603;50.878;8.036;2022-10-04T02:56:04;144883.63;;;6.85;100.00
28354;BME280;15603;50.878;8.036;2022-10-04T02:58:31;144859.34;;;6.75;100.00
28354;BME280;15603;50.878;8.036;2022-10-04T03:01:03;144917.56;;;7.00;100.00
28354;BME280;15603;50.878;8.036;2022-10-04T03:03:33;144936.94;;;7.08;100.00
28354;BME280;15603;50.878;8.036;2022-10-04T03:08:35;144918.75;;;7.00;100.00
28354;BME280;15603;50.878;8.036;2022-10-04T03:11:10;144895.72;;;6.91;100.00
28354;BME280;15603;50.878;8.036;2022-10-04T03:13:44;144873.94;;;6.81;100.00
28354;BME280;15603;50.878;8.036;2022-10-04T03:16:13;144883.63;;;6.85;100.00
28354;BME280;15603;50.878;8.036;2022-10-04T03:18:41;144878.78;;;6.83;100.00
28354;BME280;15603;50.878;8.036;2022-10-04T03:21:12;144886.03;;;6.86;100.00
28354;BME280;15603;50.878;8.036;2022-10-04T03:23:41;144895.72;;;6.91;100.00
28354;BME280;15603;50.878;8.036;2022-10-04T03:26:27;144839.97;;;6.67;100.00
28354;BME280;15603;50.878;8.036;2022-10-04T03:28:56;144911.50;;;6.97;100.00
28354;BME280;15603;50.878;8.036;2022-10-04T03:31:26;144866.66;;;6.78;100.00
28354;BME280;15603;50.878;8.036;2022-10-04T03:33:55;144917.56;;;7.00;100.00
28354;BME280;15603;50.878;8.036;2022-10-04T03:36:25;144922.41;;;7.02;100.00
28354;BME280;15603;50.878;8.036;2022-10-04T03:38:55;144923.59;;;7.02;100.00
28354;BME280;15603;50.878;8.036;2022-10-04T03:41:23;144907.88;;;6.96;100.00
28354;BME280;15603;50.878;8.036;2022-10-04T03:43:53;144871.50;;;6.80;100.00
28354;BME280;15603;50.878;8.036;2022-10-04T03:46:20;144907.88;;;6.96;100.00
28354;BME280;15603;50.878;8.036;2022-10-04T03:48:51;144929.69;;;7.05;100.00
28354;BME280;15603;50.878;8.036;2022-10-04T03:51:21;144886.03;;;6.86;100.00
28354;BME280;15603;50.878;8.036;2022-10-04T03:53:51;144950.28;;;7.14;100.00
28354;BME280;15603;50.878;8.036;2022-10-04T03:56:24;144918.75;;;7.00;100.00
28354;BME280;15603;50.878;8.036;2022-10-04T03:58:52;144921.19;;;7.01;100.00
28354;BME280;15603;50.878;8.036;2022-10-04T04:01:42;144920.00;;;7.01;100.00
28354;BME280;15603;50.878;8.036;2022-10-04T04:04:23;144953.94;;;7.15;100.00
28354;BME280;15603;50.878;8.036;2022-10-04T04:07:05;144883.63;;;6.85;100.00
28354;BME280;15603;50.878;8.036;2022-10-04T04:09:58;144951.53;;;7.14;100.00
28354;BME280;15603;50.878;8.036;2022-10-04T04:12:40;144958.78;;;7.17;100.00
28354;BME280;15603;50.878;8.036;2022-10-04T04:15:11;144945.44;;;7.12;100.00
28354;BME280;15603;50.878;8.036;2022-10-04T04:17:44;144906.66;;;6.95;100.00
28354;BME280;15603;50.878;8.036;2022-10-04T04:20:28;144917.56;;;7.00;100.00
28354;BME280;15603;50.878;8.036;2022-10-04T04:23:30;144920.00;;;7.01;100.00
28354;BME280;15603;50.878;8.036;2022-10-04T04:34:29;144913.91;;;6.98;100.00
28354;BME280;15603;50.878;8.036;2022-10-04T04:36:59;144854.50;;;6.73;100.00
28354;BME280;15603;50.878;8.036;2022-10-04T04:39:28;144873.94;;;6.81;100.00
28354;BME280;15603;50.878;8.036;2022-10-04T04:42:26;144923.59;;;7.02;100.00
28354;BME280;15603;50.878;8.036;2022-10-04T04:44:57;144880.00;;;6.84;100.00
28354;BME280;15603;50.878;8.036;2022-10-04T04:47:36;144956.38;;;7.16;100.00
28354;BME280;15603;50.878;8.036;2022-10-04T04:50:14;144922.41;;;7.02;100.00
28354;BME280;15603;50.878;8.036;2022-10-04T04:52:52;144867.84;;;6.79;100.00
28354;BME280;15603;50.878;8.036;2022-10-04T04:55:26;144922.41;;;7.02;100.00
28354;BME280;15603;50.878;8.036;2022-10-04T04:58:40;144951.53;;;7.14;100.00
28354;BME280;15603;50.878;8.036;2022-10-04T05:01:20;144958.78;;;7.17;100.00
28354;BME280;15603;50.878;8.036;2022-10-04T05:04:32;144955.13;;;7.16;100.00
28354;BME280;15603;50.878;8.036;2022-10-04T05:07:04;144953.94;;;7.15;100.00
28354;BME280;15603;50.878;8.036;2022-10-04T05:09:35;144946.69;;;7.12;100.00
28354;BME280;15603;50.878;8.036;2022-10-04T05:12:12;144943.03;;;7.11;100.00
28354;BME280;15603;50.878;8.036;2022-10-04T05:14:50;144890.88;;;6.88;100.00
28354;BME280;15603;50.878;8.036;2022-10-04T05:17:18;144929.69;;;7.05;100.00
28354;BME280;15603;50.878;8.036;2022-10-04T05:19:46;144926.03;;;7.03;100.00
28354;BME280;15603;50.878;8.036;2022-10-04T05:22:18;144835.13;;;6.65;100.00
28354;BME280;15603;50.878;8.036;2022-10-04T05:24:50;144878.78;;;6.83;100.00
28354;BME280;15603;50.878;8.036;2022-10-04T05:27:26;144889.69;;;6.88;100.00
28354;BME280;15603;50.878;8.036;2022-10-04T05:30:05;144898.16;;;6.92;100.00
28354;BME280;15603;50.878;8.036;2022-10-04T05:35:15;144923.59;;;7.02;100.00
28354;BME280;15603;50.878;8.036;2022-10-04T05:38:24;144824.25;;;6.60;100.00
28354;BME280;15603;50.878;8.036;2022-10-04T05:41:08;144827.84;;;6.62;100.00
28354;BME280;15603;50.878;8.036;2022-10-04T05:43:47;144847.28;;;6.70;100.00
28354;BME280;15603;50.878;8.036;2022-10-04T05:46:27;144781.78;;;6.42;100.00
28354;BME280;15603;50.878;8.036;2022-10-04T05:49:10;144789.09;;;6.45;100.00
28354;BME280;15603;50.878;8.036;2022-10-04T05:51:57;144854.50;;;6.73;100.00
28354;BME280;15603;50.878;8.036;2022-10-04T05:54:29;144843.63;;;6.68;100.00
28354;BME280;15603;50.878;8.036;2022-10-04T06:00:38;144873.94;;;6.81;100.00
28354;BME280;15603;50.878;8.036;2022-10-04T06:05:52;144893.31;;;6.90;100.00
28354;BME280;15603;50.878;8.036;2022-10-04T06:13:52;144911.50;;;6.97;100.00
28354;BME280;15603;50.878;8.036;2022-10-04T06:22:14;145012.13;;;7.40;100.00
28354;BME280;15603;50.878;8.036;2022-10-04T06:24:47;144961.22;;;7.18;100.00
28354;BME280;15603;50.878;8.036;2022-10-04T06:29:56;144997.59;;;7.34;100.00
28354;BME280;15603;50.878;8.036;2022-10-04T06:35:29;145029.13;;;7.47;100.00
28354;BME280;15603;50.878;8.036;2022-10-04T07:00:21;145179.53;;;8.11;100.00
28354;BME280;15603;50.878;8.036;2022-10-04T07:05:53;145223.19;;;8.29;100.00
28354;BME280;15603;50.878;8.036;2022-10-04T07:08:33;145201.41;;;8.20;100.00
28354;BME280;15603;50.878;8.036;2022-10-04T07:11:11;145249.91;;;8.40;100.00
28354;BME280;15603;50.878;8.036;2022-10-04T07:21:16;145354.34;;;8.84;100.00
28354;BME280;15603;50.878;8.036;2022-10-04T07:23:55;145373.75;;;8.93;100.00
28354;BME280;15603;50.878;8.036;2022-10-04T07:26:32;145446.59;;;9.23;100.00
28354;BME280;15603;50.878;8.036;2022-10-04T07:29:10;145468.47;;;9.33;100.00
28354;BME280;15603;50.878;8.036;2022-10-04T07:31:51;145536.47;;;9.61;100.00
28354;BME280;15603;50.878;8.036;2022-10-04T07:34:26;145502.50;;;9.47;100.00
28354;BME280;15603;50.878;8.036;2022-10-04T07:36:57;145603.31;;;9.90;100.00
28354;BME280;15603;50.878;8.036;2022-10-04T07:40:03;145599.66;;;9.88;100.00
28354;BME280;15603;50.878;8.036;2022-10-04T07:42:44;145648.28;;;10.09;100.00
28354;BME280;15603;50.878;8.036;2022-10-04T07:45:22;145628.78;;;10.00;100.00
28354;BME280;15603;50.878;8.036;2022-10-04T07:50:40;145786.84;;;10.67;99.51
28354;BME280;15603;50.878;8.036;2022-10-04T07:53:17;145835.47;;;10.88;98.91
28354;BME280;15603;50.878;8.036;2022-10-04T07:56:10;145825.75;;;10.84;96.69
28354;BME280;15603;50.878;8.036;2022-10-04T08:01:44;145920.56;;;11.24;99.54
28354;BME280;15603;50.878;8.036;2022-10-04T08:04:29;145965.56;;;11.43;99.96
28354;BME280;15603;50.878;8.036;2022-10-04T08:07:02;145986.25;;;11.51;100.00
28354;BME280;15603;50.878;8.036;2022-10-04T08:17:46;146092.13;;;11.96;99.90
28354;BME280;15603;50.878;8.036;2022-10-04T08:26:38;146194.31;;;12.39;99.65
28354;BME280;15603;50.878;8.036;2022-10-04T08:29:29;146178.50;;;12.32;96.88
28354;BME280;15603;50.878;8.036;2022-10-04T08:35:20;146212.56;;;12.47;99.51
28354;BME280;15603;50.878;8.036;2022-10-04T08:52:17;146469.53;;;13.55;96.03
28354;BME280;15603;50.878;8.036;2022-10-04T08:55:10;146492.66;;;13.65;96.24
28354;BME280;15603;50.878;8.036;2022-10-04T09:06:41;146521.88;;;13.77;94.57
28354;BME280;15603;50.878;8.036;2022-10-04T09:12:07;146499.94;;;13.68;95.57
28354;BME280;15603;50.878;8.036;2022-10-04T09:17:47;146563.31;;;13.94;94.30
28354;BME280;15603;50.878;8.036;2022-10-04T09:28:45;146694.91;;;14.50;91.72
28354;BME280;15603;50.878;8.036;2022-10-04T09:34:49;146665.66;;;14.38;92.15
28354;BME280;15603;50.878;8.036;2022-10-04T09:46:07;146736.38;;;14.67;90.48
28354;BME280;15603;50.878;8.036;2022-10-04T09:57:37;146808.31;;;14.98;88.60
28354;BME280;15603;50.878;8.036;2022-10-04T10:00:23;146815.59;;;15.01;89.64
28354;BME280;15603;50.878;8.036;2022-10-04T10:05:56;146880.22;;;15.28;85.87
28354;BME280;15603;50.878;8.036;2022-10-04T10:11:19;146931.47;;;15.49;84.89
28354;BME280;15603;50.878;8.036;2022-10-04T10:20:16;147021.72;;;15.87;83.27
28354;BME280;15603;50.878;8.036;2022-10-04T10:42:49;147054.69;;;16.01;81.66
28354;BME280;15603;50.878;8.036;2022-10-04T11:00:47;147151.06;;;16.42;77.43
28354;BME280;15603;50.878;8.036;2022-10-04T11:06:13;147209.63;;;16.66;76.92
28354;BME280;15603;50.878;8.036;2022-10-04T11:11:47;147163.25;;;16.47;75.04
28354;BME280;15603;50.878;8.036;2022-10-04T11:25:57;147292.69;;;17.01;72.64
28354;BME280;15603;50.878;8.036;2022-10-04T11:31:37;147282.88;;;16.97;74.57
28354;BME280;15603;50.878;8.036;2022-10-04T11:37:06;147351.25;;;17.26;71.43
28354;BME280;15603;50.878;8.036;2022-10-04T11:48:30;147365.94;;;17.32;70.52
28354;BME280;15603;50.878;8.036;2022-10-04T11:51:22;147363.47;;;17.31;69.18
28354;BME280;15603;50.878;8.036;2022-10-04T11:57:12;147303.66;;;17.06;68.70
28354;BME280;15603;50.878;8.036;2022-10-04T12:02:59;147420.88;;;17.55;67.98
28354;BME280;15603;50.878;8.036;2022-10-04T12:25:02;147500.28;;;17.89;60.81
28354;BME280;15603;50.878;8.036;2022-10-04T12:33:19;147594.31;;;18.28;63.00
28354;BME280;15603;50.878;8.036;2022-10-04T12:46:48;147565.03;;;18.16;56.56
28354;BME280;15603;50.878;8.036;2022-10-04T12:49:59;147576.00;;;18.20;57.36
28354;BME280;15603;50.878;8.036;2022-10-04T12:52:41;147567.50;;;18.17;58.15
28354;BME280;15603;50.878;8.036;2022-10-04T13:00:46;147546.69;;;18.08;58.71
28354;BME280;15603;50.878;8.036;2022-10-04T13:09:11;147522.28;;;17.98;58.56
28354;BME280;15603;50.878;8.036;2022-10-04T13:17:03;147492.94;;;17.85;59.28
28354;BME280;15603;50.878;8.036;2022-10-04T13:20:21;147568.69;;;18.17;59.66
28354;BME280;15603;50.878;8.036;2022-10-04T13:28:28;147580.88;;;18.22;60.67
28354;BME280;15603;50.878;8.036;2022-10-04T13:31:19;147573.59;;;18.19;60.59
28354;BME280;15603;50.878;8.036;2022-10-04T13:34:39;147571.13;;;18.18;58.70
28354;BME280;15603;50.878;8.036;2022-10-04T13:37:33;147573.59;;;18.19;58.63
28354;BME280;15603;50.878;8.036;2022-10-04T13:46:23;147546.69;;;18.08;60.45
28354;BME280;15603;50.878;8.036;2022-10-04T13:51:22;147541.81;;;18.06;59.22
28354;BME280;15603;50.878;8.036;2022-10-04T13:59:49;147562.56;;;18.15;59.31
28354;BME280;15603;50.878;8.036;2022-10-04T14:05:24;147588.22;;;18.25;59.70
28354;BME280;15603;50.878;8.036;2022-10-04T14:08:23;147583.34;;;18.23;59.67
28354;BME280;15603;50.878;8.036;2022-10-04T14:11:40;147612.66;;;18.36;59.75
28354;BME280;15603;50.878;8.036;2022-10-04T14:23:16;147571.13;;;18.18;60.88
28354;BME280;15603;50.878;8.036;2022-10-04T14:26:02;147587.03;;;18.25;60.01
28354;BME280;15603;50.878;8.036;2022-10-04T14:28:42;147541.81;;;18.06;59.90
28354;BME280;15603;50.878;8.036;2022-10-04T14:41:47;147538.16;;;18.04;62.74
28354;BME280;15603;50.878;8.036;2022-10-04T14:44:32;147500.28;;;17.89;62.34
28354;BME280;15603;50.878;8.036;2022-10-04T14:55:32;147492.94;;;17.85;63.30
28354;BME280;15603;50.878;8.036;2022-10-04T14:58:19;147512.53;;;17.94;61.69
28354;BME280;15603;50.878;8.036;2022-10-04T15:09:15;147468.50;;;17.75;63.25
28354;BME280;15603;50.878;8.036;2022-10-04T15:11:46;147496.63;;;17.87;63.76
28354;BME280;15603;50.878;8.036;2022-10-04T15:23:17;147455.06;;;17.70;65.02
28354;BME280;15603;50.878;8.036;2022-10-04T15:26:05;147451.38;;;17.68;65.55
28354;BME280;15603;50.878;8.036;2022-10-04T15:33:59;147429.41;;;17.59;66.04
28354;BME280;15603;50.878;8.036;2022-10-04T15:48:20;147402.56;;;17.48;66.83
28354;BME280;15603;50.878;8.036;2022-10-04T15:51:10;147387.88;;;17.41;68.29
28354;BME280;15603;50.878;8.036;2022-10-04T15:59:47;147274.38;;;16.94;68.83
28354;BME280;15603;50.878;8.036;2022-10-04T16:05:16;147339.06;;;17.21;70.38
28354;BME280;15603;50.878;8.036;2022-10-04T16:08:25;147317.09;;;17.12;70.99
28354;BME280;15603;50.878;8.036;2022-10-04T16:22:35;147225.50;;;16.73;73.77
28354;BME280;15603;50.878;8.036;2022-10-04T16:25:34;147197.44;;;16.61;74.43
28354;BME280;15603;50.878;8.036;2022-10-04T16:28:16;147168.13;;;16.49;75.13
28354;BME280;15603;50.878;8.036;2022-10-04T16:31:16;147153.50;;;16.43;76.62
28354;BME280;15603;50.878;8.036;2022-10-04T16:33:57;147112.00;;;16.25;76.78
28354;BME280;15603;50.878;8.036;2022-10-04T16:36:48;147102.25;;;16.21;76.59
28354;BME280;15603;50.878;8.036;2022-10-04T16:39:54;147081.50;;;16.13;76.91
28354;BME280;15603;50.878;8.036;2022-10-04T16:42:45;147064.44;;;16.05;76.88
28354;BME280;15603;50.878;8.036;2022-10-04T16:45:42;147016.84;;;15.85;77.17
28354;BME280;15603;50.878;8.036;2022-10-04T16:53:50;146975.34;;;15.68;79.13
28354;BME280;15603;50.878;8.036;2022-10-04T16:56:28;146865.59;;;15.22;79.86
28354;BME280;15603;50.878;8.036;2022-10-04T16:59:03;146872.91;;;15.25;80.93
28354;BME280;15603;50.878;8.036;2022-10-04T17:04:51;146835.13;;;15.09;84.33
28354;BME280;15603;50.878;8.036;2022-10-04T17:07:37;146819.25;;;15.02;85.52
28354;BME280;15603;50.878;8.036;2022-10-04T17:10:32;146757.13;;;14.76;88.53
28354;BME280;15603;50.878;8.036;2022-10-04T17:13:20;146735.19;;;14.67;90.07
28354;BME280;15603;50.878;8.036;2022-10-04T17:15:57;146716.91;;;14.59;90.18
28354;BME280;15603;50.878;8.036;2022-10-04T17:24:19;146626.66;;;14.21;93.78
28354;BME280;15603;50.878;8.036;2022-10-04T17:30:21;146568.16;;;13.97;95.15
28354;BME280;15603;50.878;8.036;2022-10-04T17:33:06;146536.50;;;13.83;95.30
28354;BME280;15603;50.878;8.036;2022-10-04T17:50:06;146479.28;;;13.59;96.99
28354;BME280;15603;50.878;8.036;2022-10-04T17:53:01;146451.25;;;13.47;97.72
28354;BME280;15603;50.878;8.036;2022-10-04T17:55:57;146434.19;;;13.40;97.99
28354;BME280;15603;50.878;8.036;2022-10-04T17:58:46;146422.00;;;13.35;98.76
28354;BME280;15603;50.878;8.036;2022-10-04T18:01:46;146401.28;;;13.26;98.92
28354;BME280;15603;50.878;8.036;2022-10-04T18:04:25;146412.28;;;13.31;99.17
28354;BME280;15603;50.878;8.036;2022-10-04T18:07:10;146323.38;;;12.93;100.00
28354;BME280;15603;50.878;8.036;2022-10-04T18:09:44;146361.09;;;13.09;100.00
28354;BME280;15603;50.878;8.036;2022-10-04T18:15:14;146373.28;;;13.14;100.00
28354;BME280;15603;50.878;8.036;2022-10-04T18:17:47;146292.91;;;12.81;100.00
28354;BME280;15603;50.878;8.036;2022-10-04T18:20:33;146296.56;;;12.82;100.00
28354;BME280;15603;50.878;8.036;2022-10-04T18:25:53;146235.69;;;12.56;100.00
28354;BME280;15603;50.878;8.036;2022-10-04T18:28:23;146244.22;;;12.60;100.00
28354;BME280;15603;50.878;8.036;2022-10-04T18:36:12;146244.22;;;12.60;100.00
28354;BME280;15603;50.878;8.036;2022-10-04T18:38:41;146200.44;;;12.42;100.00
28354;BME280;15603;50.878;8.036;2022-10-04T18:41:20;146185.78;;;12.35;100.00
28354;BME280;15603;50.878;8.036;2022-10-04T18:44:12;146200.44;;;12.42;100.00
28354;BME280;15603;50.878;8.036;2022-10-04T18:46:39;146210.16;;;12.46;100.00
28354;BME280;15603;50.878;8.036;2022-10-04T18:49:16;146178.50;;;12.32;100.00
28354;BME280;15603;50.878;8.036;2022-10-04T18:54:58;146132.28;;;12.13;100.00
28354;BME280;15603;50.878;8.036;2022-10-04T18:57:32;146110.38;;;12.04;100.00
28354;BME280;15603;50.878;8.036;2022-10-04T19:00:21;146056.78;;;11.81;100.00
28354;BME280;15603;50.878;8.036;2022-10-04T19:03:15;146071.38;;;11.87;100.00
28354;BME280;15603;50.878;8.036;2022-10-04T19:06:21;146045.84;;;11.76;100.00
28354;BME280;15603;50.878;8.036;2022-10-04T19:09:17;146031.25;;;11.70;100.00
28354;BME280;15603;50.878;8.036;2022-10-04T19:11:59;145986.25;;;11.51;100.00
28354;BME280;15603;50.878;8.036;2022-10-04T19:20:53;146062.91;;;11.84;100.00
28354;BME280;15603;50.878;8.036;2022-10-04T19:23:33;146051.91;;;11.79;100.00
28354;BME280;15603;50.878;8.036;2022-10-04T19:26:11;146017.88;;;11.65;100.00
28354;BME280;15603;50.878;8.036;2022-10-04T19:29:24;146034.88;;;11.72;100.00
28354;BME280;15603;50.878;8.036;2022-10-04T19:32:00;146037.31;;;11.73;100.00
28354;BME280;15603;50.878;8.036;2022-10-04T19:37:31;145985.00;;;11.51;100.00
28354;BME280;15603;50.878;8.036;2022-10-04T19:46:23;145942.44;;;11.33;100.00
28354;BME280;15603;50.878;8.036;2022-10-04T19:48:23;145925.41;;;11.26;100.00
28354;BME280;15603;50.878;8.036;2022-10-04T19:53:39;145865.84;;;11.00;100.00
28354;BME280;15603;50.878;8.036;2022-10-04T19:56:18;145918.16;;;11.23;100.00
28354;BME280;15603;50.878;8.036;2022-10-04T19:58:51;145920.56;;;11.24;100.00
28354;BME280;15603;50.878;8.036;2022-10-04T20:01:23;145857.31;;;10.97;100.00
28354;BME280;15603;50.878;8.036;2022-10-04T20:03:52;145862.22;;;10.99;100.00
28354;BME280;15603;50.878;8.036;2022-10-04T20:06:46;145886.53;;;11.09;100.00
28354;BME280;15603;50.878;8.036;2022-10-04T20:09:48;145862.22;;;10.99;100.00
28354;BME280;15603;50.878;8.036;2022-10-04T20:12:36;145828.16;;;10.85;100.00
28354;BME280;15603;50.878;8.036;2022-10-04T20:17:44;145897.44;;;11.14;100.00
28354;BME280;15603;50.878;8.036;2022-10-04T20:23:05;145887.72;;;11.10;100.00
28354;BME280;15603;50.878;8.036;2022-10-04T20:30:58;145837.88;;;10.89;100.00
28354;BME280;15603;50.878;8.036;2022-10-04T20:36:02;145774.66;;;10.62;100.00
28354;BME280;15603;50.878;8.036;2022-10-04T20:38:59;145816.00;;;10.79;100.00
28354;BME280;15603;50.878;8.036;2022-10-04T20:47:32;145757.69;;;10.55;100.00
28354;BME280;15603;50.878;8.036;2022-10-04T20:50:00;145713.91;;;10.36;100.00
28354;BME280;15603;50.878;8.036;2022-10-04T20:52:30;145771.06;;;10.60;100.00
28354;BME280;15603;50.878;8.036;2022-10-04T20:55:01;145762.53;;;10.57;100.00
28354;BME280;15603;50.878;8.036;2022-10-04T20:57:28;145763.75;;;10.57;100.00
28354;BME280;15603;50.878;8.036;2022-10-04T20:59:56;145779.53;;;10.64;100.00
28354;BME280;15603;50.878;8.036;2022-10-04T21:02:25;145789.28;;;10.68;100.00
28354;BME280;15603;50.878;8.036;2022-10-04T21:05:10;145700.53;;;10.31;100.00
28354;BME280;15603;50.878;8.036;2022-10-04T21:07:38;145716.38;;;10.37;100.00
28354;BME280;15603;50.878;8.036;2022-10-04T21:10:14;145703.00;;;10.32;100.00
28354;BME280;15603;50.878;8.036;2022-10-04T21:12:41;145723.63;;;10.40;100.00
28354;BME280;15603;50.878;8.036;2022-10-04T21:17:42;145760.09;;;10.56;100.00
28354;BME280;15603;50.878;8.036;2022-10-04T21:20:14;145728.50;;;10.43;100.00
28354;BME280;15603;50.878;8.036;2022-10-04T21:23:15;145687.13;;;10.25;100.00
28354;BME280;15603;50.878;8.036;2022-10-04T21:25:43;145696.84;;;10.29;100.00
28354;BME280;15603;50.878;8.036;2022-10-04T21:28:30;145691.97;;;10.27;100.00
28354;BME280;15603;50.878;8.036;2022-10-04T21:30:58;145630.03;;;10.01;100.00
28354;BME280;15603;50.878;8.036;2022-10-04T21:33:26;145623.94;;;9.98;100.00
28354;BME280;15603;50.878;8.036;2022-10-04T21:35:53;145626.38;;;9.99;100.00
28354;BME280;15603;50.878;8.036;2022-10-04T21:38:20;145606.97;;;9.91;100.00
28354;BME280;15603;50.878;8.036;2022-10-04T21:40:47;145597.19;;;9.87;100.00
28354;BME280;15603;50.878;8.036;2022-10-04T21:43:14;145576.56;;;9.78;100.00
28354;BME280;15603;50.878;8.036;2022-10-04T21:45:41;145509.75;;;9.50;100.00
28354;BME280;15603;50.878;8.036;2022-10-04T21:48:08;145540.13;;;9.63;100.00
28354;BME280;15603;50.878;8.036;2022-10-04T21:50:35;145475.78;;;9.36;100.00
28354;BME280;15603;50.878;8.036;2022-10-04T21:53:02;145536.47;;;9.61;100.00
28354;BME280;15603;50.878;8.036;2022-10-04T21:55:29;145546.19;;;9.66;100.00
28354;BME280;15603;50.878;8.036;2022-10-04T21:57:56;145491.53;;;9.42;100.00
28354;BME280;15603;50.878;8.036;2022-10-04T22:00:23;145519.47;;;9.54;100.00
28354;BME280;15603;50.878;8.036;2022-10-04T22:02:50;145447.84;;;9.24;100.00
28354;BME280;15603;50.878;8.036;2022-10-04T22:05:17;145475.78;;;9.36;100.00
28354;BME280;15603;50.878;8.036;2022-10-04T22:07:44;145459.97;;;9.29;100.00
28354;BME280;15603;50.878;8.036;2022-10-04T22:10:12;145529.22;;;9.58;100.00
28354;BME280;15603;50.878;8.036;2022-10-04T22:12:38;145554.69;;;9.69;100.00
28354;BME280;15603;50.878;8.036;2022-10-04T22:15:06;145548.66;;;9.67;100.00